1984 IMBOA (1984041S17042)


On this page: IBTrACS data - Map and Plots - Positions - Intensities - Original source data

Summary

Start Feb 10
End Feb 21
Basin SI
LMI 65 kt
Sources jtwc_sh
jtwc_sh
reunion
td9636
neumann
In WMO? Yes
Previous storm 1984 HAJA (SI)
Previous in basin 1984 HAJA (SI)
Concurrent storms 1984 WILLY (SI)
1984 ANNETTE (SI)
1984 HARVEY (SP)
1984 HAJA (SI)
1984 IMBOA (SI)
1984 HAJA (SI)
1984 BOBBY (SI)
1984 INGRID (SP)
1984 NAMELESS (SP)
Next in basin 1984 HAJA (SI)
Next storm 1984 HAJA (SI)

top of page IBTrACS Data: File Access

top of page HURSAT Data: File Access

Image of storm

top of page Plots:

Map of storm track will not appear if FTP is down
Time series of cyclone Maximum Sustained Wind will not appear if FTP is down
Time series of cyclone Minimum Central Pressure will not appear if FTP is down

top of page Track Data:Position

jtwc_sh jtwc_sh reunion td9636 neumann
Date Lat Lon Lat Lon Lat Lon Lat Lon Lat Lon
1984-02-10 06:00:00 -16.8 42.3 -16.8 42.4
1984-02-10 12:00:00 -17.5 42.5 -17.1 42.0
1984-02-10 18:00:00 -17.6 41.8 -17.5 41.5
1984-02-11 00:00:00 -17.9 40.9 -18.0 40.9
1984-02-11 06:00:00 -18.7 40.5 -18.6 40.6
1984-02-11 12:00:00 -19.1 40.1 -19.3 40.9
1984-02-11 18:00:00 -19.7 41.1 -19.7 41.4
1984-02-12 00:00:00 -19.5 42.1 -19.5 41.4
1984-02-12 06:00:00 -19.2 41.2 -19.6 41.4 -19.4 41.4 -19.2 41.2
1984-02-12 12:00:00 -20.3 41.1 -20.3 41.1 -20.2 42.0 -20.4 42.0 -20.3 41.1
1984-02-12 18:00:00 -21.3 41.0 -21.3 41.1 -21.5 42.2 -21.6 42.3 -21.3 41.0
1984-02-13 00:00:00 -22.2 40.9 -22.2 41.0 -22.1 41.1 -22.3 41.7 -22.2 40.9
1984-02-13 06:00:00 -23.0 40.9 -23.0 40.9 -23.0 40.0 -23.0 40.8 -23.0 40.9
1984-02-13 12:00:00 -23.8 40.8 -23.8 40.8 -23.6 39.8 -23.8 40.2 -23.8 40.8
1984-02-13 18:00:00 -24.5 40.5 -24.5 40.5 -24.4 39.8 -24.7 39.8 -24.5 40.5
1984-02-14 00:00:00 -25.0 40.1 -25.0 40.1 -25.2 39.8 -25.6 39.7 -25.0 40.1
1984-02-14 06:00:00 -25.4 39.7 -25.4 39.6 -26.2 39.5 -26.2 39.6 -25.4 39.7
1984-02-14 12:00:00 -25.8 39.2 -25.8 39.2 -26.5 39.0 -26.5 39.0 -25.8 39.2
1984-02-14 18:00:00 -26.1 38.8 -26.1 38.8 -26.7 38.5 -26.5 38.4 -26.1 38.8
1984-02-15 00:00:00 -26.3 38.4 -26.3 38.4 -26.0 38.1 -25.9 38.3 -26.3 38.4
1984-02-15 06:00:00 -26.4 38.0 -25.6 38.6 -25.4 38.5 -26.4 38.0
1984-02-15 12:00:00 -25.8 38.9 -25.5 38.7
1984-02-15 18:00:00 -26.1 39.0 -26.0 38.9
1984-02-16 00:00:00 -26.6 39.0 -26.6 39.0
1984-02-16 06:00:00 -27.0 38.9 -27.1 38.8
jtwc_sh jtwc_sh reunion td9636 neumann
1984-02-16 12:00:00 -27.7 38.0 -27.3 38.2
1984-02-16 18:00:00 -27.0 37.1 -27.2 37.4
1984-02-17 00:00:00 -26.0 36.3 -26.4 36.4
1984-02-17 06:00:00 -25.9 35.3 -25.8 35.3
1984-02-17 12:00:00 -26.3 34.2 -26.1 34.5
1984-02-17 18:00:00 -27.0 33.9 -26.8 33.9
1984-02-18 00:00:00 -27.7 33.2 -27.7 33.3
1984-02-18 06:00:00 -28.7 32.9 -28.5 32.9
1984-02-18 12:00:00 -29.0 33.0 -29.0 32.9
1984-02-18 18:00:00 -29.3 33.1 -29.2 33.1
1984-02-19 00:00:00 -29.6 33.3 -29.5 33.4
1984-02-19 06:00:00 -29.7 34.0 -29.5 33.9
1984-02-19 12:00:00 -29.1 34.6 -28.9 34.5
1984-02-19 18:00:00 -28.6 34.9 -28.0 35.0
1984-02-20 00:00:00 -27.5 35.1 -27.3 35.2
1984-02-20 06:00:00 -26.7 35.3 -26.6 35.4
1984-02-20 12:00:00 -25.9 35.9 -25.9 36.1
1984-02-20 18:00:00 -25.5 36.2 -25.3 36.8
1984-02-21 00:00:00 -25.0 37.0 -24.8 37.3
1984-02-21 06:00:00 -24.2 37.7 -24.3 37.7

top of pageTrack Data:Intensity

jtwc_sh jtwc_sh reunion td9636 neumann
Date Wind Pres Wind Pres Wind Pres Wind Pres Wind Pres
1984-02-10 06:00:00 36.
1984-02-10 12:00:00 36.
1984-02-10 18:00:00 36.
1984-02-11 00:00:00 36.
1984-02-11 06:00:00 20. 1003. 25.
1984-02-11 12:00:00 24. 1000. 25.
1984-02-11 18:00:00 24. 1000. 35.
1984-02-12 00:00:00 28. 997. 35.
1984-02-12 06:00:00 30. 36. 991. 40. 30.
1984-02-12 12:00:00 30. 30. 44. 984. 40. 30.
1984-02-12 18:00:00 30. 30. 44. 984. 50. 30.
1984-02-13 00:00:00 35. 35. 44. 984. 50. 35.
1984-02-13 06:00:00 40. 35. 52. 976. 65. 40.
1984-02-13 12:00:00 45. 40. 44. 984. 65. 45.
1984-02-13 18:00:00 45. 40. 44. 984. 55. 45.
1984-02-14 00:00:00 45. 45. 36. 991. 55. 45.
1984-02-14 06:00:00 45. 45. 36. 991. 40. 45. 991.
1984-02-14 12:00:00 45. 45. 36. 991. 40. 45.
1984-02-14 18:00:00 40. 45. 36. 991. 40. 40.
1984-02-15 00:00:00 40. 40. 36. 991. 40. 40.
1984-02-15 06:00:00 35. 36. 991. 40. 35.
1984-02-15 12:00:00 36. 991. 40.
1984-02-15 18:00:00 36. 991. 40.
1984-02-16 00:00:00 36. 991. 40.
1984-02-16 06:00:00 36. 991. 40.
jtwc_sh jtwc_sh reunion td9636 neumann
1984-02-16 12:00:00 36. 991. 40.
1984-02-16 18:00:00 36. 991. 40.
1984-02-17 00:00:00 28. 997. 40.
1984-02-17 06:00:00 24. 1000. 35.
1984-02-17 12:00:00 24. 1000. 35.
1984-02-17 18:00:00 24. 1000. 35.
1984-02-18 00:00:00 28. 997. 35.
1984-02-18 06:00:00 28. 997. 35.
1984-02-18 12:00:00 28. 997. 35.
1984-02-18 18:00:00 28. 997. 35.
1984-02-19 00:00:00 28. 997. 35.
1984-02-19 06:00:00 24. 1000. 30.
1984-02-19 12:00:00 24. 1000. 30.
1984-02-19 18:00:00 36. 25.
1984-02-20 00:00:00 36. 25.
1984-02-20 06:00:00 36.
1984-02-20 12:00:00 36.
1984-02-20 18:00:00 36.
1984-02-21 00:00:00 36.
1984-02-21 06:00:00 36.

top of page Links to source data

Source Source file Format
jtwc_sh bsh221984.txt ATCF
jtwc_sh bsh231984.txt ATCF
reunion WMO-Best-Tracks.txt:Line=12889:imboa WMO (old format)
td9636 cons_worldwide_trop_cyclone_18710101-19891231-005:Line=12743 TD 9636
neumann tracks.sh:Storm=704:IMBOA:BSH2184:JTWC HURDAT